sensor_id;sensor_type;location;lat;lon;timestamp;P1;P2;P0
73861;PMS5003;63459;51.456;-0.916;2023-05-07T02:36:06;6;6;
73861;PMS5003;63459;51.456;-0.916;2023-05-07T02:38:23;5;5;
73861;PMS5003;63459;51.456;-0.916;2023-05-07T02:40:48;4;3;
73861;PMS5003;63459;51.456;-0.916;2023-05-07T02:43:13;6;5;
73861;PMS5003;63459;51.456;-0.916;2023-05-07T02:48:04;5;5;
73861;PMS5003;63459;51.456;-0.916;2023-05-07T02:50:29;5;5;
73861;PMS5003;63459;51.456;-0.916;2023-05-07T02:52:59;5;5;
73861;PMS5003;63459;51.456;-0.916;2023-05-07T02:55:20;5;5;
73861;PMS5003;63459;51.456;-0.916;2023-05-07T02:57:45;4;4;
73861;PMS5003;63459;51.456;-0.916;2023-05-07T03:00:12;5;5;
73861;PMS5003;63459;51.456;-0.916;2023-05-07T03:02:36;6;6;
73861;PMS5003;63459;51.456;-0.916;2023-05-07T03:05:02;7;7;
73861;PMS5003;63459;51.456;-0.916;2023-05-07T03:07:27;7;7;
73861;PMS5003;63459;51.456;-0.916;2023-05-07T03:09:53;4;4;
73861;PMS5003;63459;51.456;-0.916;2023-05-07T03:12:18;6;5;
73861;PMS5003;63459;51.456;-0.916;2023-05-07T03:14:43;6;6;
73861;PMS5003;63459;51.456;-0.916;2023-05-07T03:17:08;5;5;
73861;PMS5003;63459;51.456;-0.916;2023-05-07T03:21:59;8;8;
73861;PMS5003;63459;51.456;-0.916;2023-05-07T03:24:24;8;7;
73861;PMS5003;63459;51.456;-0.916;2023-05-07T03:26:50;8;8;
73861;PMS5003;63459;51.456;-0.916;2023-05-07T03:29:15;7;6;
73861;PMS5003;63459;51.456;-0.916;2023-05-07T03:31:40;7;7;
73861;PMS5003;63459;51.456;-0.916;2023-05-07T03:34:05;9;7;
73861;PMS5003;63459;51.456;-0.916;2023-05-07T03:38:57;12;11;
73861;PMS5003;63459;51.456;-0.916;2023-05-07T03:41:22;8;8;
73861;PMS5003;63459;51.456;-0.916;2023-05-07T03:43:48;9;8;
73861;PMS5003;63459;51.456;-0.916;2023-05-07T03:46:13;10;10;
73861;PMS5003;63459;51.456;-0.916;2023-05-07T03:48:38;9;9;
73861;PMS5003;63459;51.456;-0.916;2023-05-07T03:51:03;8;8;
73861;PMS5003;63459;51.456;-0.916;2023-05-07T03:53:28;6;6;
73861;PMS5003;63459;51.456;-0.916;2023-05-07T03:58:19;8;8;
73861;PMS5003;63459;51.456;-0.916;2023-05-07T04:00:45;11;10;
73861;PMS5003;63459;51.456;-0.916;2023-05-07T04:03:10;9;9;
73861;PMS5003;63459;51.456;-0.916;2023-05-07T04:05:35;10;10;
73861;PMS5003;63459;51.456;-0.916;2023-05-07T04:08:01;13;12;
73861;PMS5003;63459;51.456;-0.916;2023-05-07T04:10:27;9;8;
73861;PMS5003;63459;51.456;-0.916;2023-05-07T04:12:52;9;9;
73861;PMS5003;63459;51.456;-0.916;2023-05-07T04:15:17;11;11;
73861;PMS5003;63459;51.456;-0.916;2023-05-07T04:17:42;10;9;
73861;PMS5003;63459;51.456;-0.916;2023-05-07T04:22:33;10;10;
73861;PMS5003;63459;51.456;-0.916;2023-05-07T04:24:59;12;12;
73861;PMS5003;63459;51.456;-0.916;2023-05-07T04:27:24;14;14;
73861;PMS5003;63459;51.456;-0.916;2023-05-07T04:29:50;14;14;
73861;PMS5003;63459;51.456;-0.916;2023-05-07T04:32:15;16;14;
73861;PMS5003;63459;51.456;-0.916;2023-05-07T04:34:40;13;13;
73861;PMS5003;63459;51.456;-0.916;2023-05-07T04:39:30;10;10;
73861;PMS5003;63459;51.456;-0.916;2023-05-07T04:41:57;12;11;
73861;PMS5003;63459;51.456;-0.916;2023-05-07T04:44:21;10;10;
73861;PMS5003;63459;51.456;-0.916;2023-05-07T04:46:47;12;11;
73861;PMS5003;63459;51.456;-0.916;2023-05-07T04:49:13;7;6;
73861;PMS5003;63459;51.456;-0.916;2023-05-07T04:51:39;7;6;
73861;PMS5003;63459;51.456;-0.916;2023-05-07T04:56:34;10;7;
73861;PMS5003;63459;51.456;-0.916;2023-05-07T04:58:54;7;7;
73861;PMS5003;63459;51.456;-0.916;2023-05-07T05:03:45;6;5;
73861;PMS5003;63459;51.456;-0.916;2023-05-07T05:06:11;5;5;
73861;PMS5003;63459;51.456;-0.916;2023-05-07T05:08:36;7;6;
73861;PMS5003;63459;51.456;-0.916;2023-05-07T05:11:01;6;5;
73861;PMS5003;63459;51.456;-0.916;2023-05-07T05:13:27;4;4;
73861;PMS5003;63459;51.456;-0.916;2023-05-07T05:15:52;4;4;
73861;PMS5003;63459;51.456;-0.916;2023-05-07T05:18:18;6;6;
73861;PMS5003;63459;51.456;-0.916;2023-05-07T05:23:08;7;7;
73861;PMS5003;63459;51.456;-0.916;2023-05-07T05:25:33;5;5;
73861;PMS5003;63459;51.456;-0.916;2023-05-07T05:27:58;4;4;
73861;PMS5003;63459;51.456;-0.916;2023-05-07T05:30:24;5;4;
73861;PMS5003;63459;51.456;-0.916;2023-05-07T05:35:14;5;5;
73861;PMS5003;63459;51.456;-0.916;2023-05-07T05:37:39;6;5;
73861;PMS5003;63459;51.456;-0.916;2023-05-07T05:40:05;4;4;
73861;PMS5003;63459;51.456;-0.916;2023-05-07T05:42:30;6;6;
73861;PMS5003;63459;51.456;-0.916;2023-05-07T05:44:55;6;6;
73861;PMS5003;63459;51.456;-0.916;2023-05-07T05:47:22;5;5;
73861;PMS5003;63459;51.456;-0.916;2023-05-07T05:49:46;7;7;
73861;PMS5003;63459;51.456;-0.916;2023-05-07T05:52:12;6;6;
73861;PMS5003;63459;51.456;-0.916;2023-05-07T05:54:37;6;5;
73861;PMS5003;63459;51.456;-0.916;2023-05-07T05:57:03;5;5;
73861;PMS5003;63459;51.456;-0.916;2023-05-07T05:59:28;6;6;
73861;PMS5003;63459;51.456;-0.916;2023-05-07T06:01:54;7;7;
73861;PMS5003;63459;51.456;-0.916;2023-05-07T06:04:19;8;8;
73861;PMS5003;63459;51.456;-0.916;2023-05-07T06:06:44;6;5;
73861;PMS5003;63459;51.456;-0.916;2023-05-07T06:09:14;6;6;
73861;PMS5003;63459;51.456;-0.916;2023-05-07T06:11:34;8;8;
73861;PMS5003;63459;51.456;-0.916;2023-05-07T06:14:00;7;7;
73861;PMS5003;63459;51.456;-0.916;2023-05-07T06:16:26;6;6;
73861;PMS5003;63459;51.456;-0.916;2023-05-07T06:19:01;5;4;
73861;PMS5003;63459;51.456;-0.916;2023-05-07T06:21:17;9;7;
73861;PMS5003;63459;51.456;-0.916;2023-05-07T06:23:42;6;6;
73861;PMS5003;63459;51.456;-0.916;2023-05-07T06:28:32;4;4;
73861;PMS5003;63459;51.456;-0.916;2023-05-07T06:33:23;8;8;
73861;PMS5003;63459;51.456;-0.916;2023-05-07T06:35:54;9;8;
73861;PMS5003;63459;51.456;-0.916;2023-05-07T06:38:14;7;7;
73861;PMS5003;63459;51.456;-0.916;2023-05-07T06:40:47;7;6;
73861;PMS5003;63459;51.456;-0.916;2023-05-07T06:45:30;10;8;
73861;PMS5003;63459;51.456;-0.916;2023-05-07T06:47:55;6;5;
73861;PMS5003;63459;51.456;-0.916;2023-05-07T06:50:20;7;6;
73861;PMS5003;63459;51.456;-0.916;2023-05-07T06:55:16;6;6;
73861;PMS5003;63459;51.456;-0.916;2023-05-07T07:00:02;8;7;
73861;PMS5003;63459;51.456;-0.916;2023-05-07T07:02:32;8;7;
73861;PMS5003;63459;51.456;-0.916;2023-05-07T07:04:53;7;6;
73861;PMS5003;63459;51.456;-0.916;2023-05-07T07:07:18;6;6;
73861;PMS5003;63459;51.456;-0.916;2023-05-07T07:09:43;6;6;
73861;PMS5003;63459;51.456;-0.916;2023-05-07T07:12:08;6;6;
73861;PMS5003;63459;51.456;-0.916;2023-05-07T07:14:35;7;6;
73861;PMS5003;63459;51.456;-0.916;2023-05-07T07:16:58;6;6;
73861;PMS5003;63459;51.456;-0.916;2023-05-07T07:19:24;7;7;
73861;PMS5003;63459;51.456;-0.916;2023-05-07T07:21:49;9;8;
73861;PMS5003;63459;51.456;-0.916;2023-05-07T07:26:40;6;6;
73861;PMS5003;63459;51.456;-0.916;2023-05-07T07:29:05;9;8;
73861;PMS5003;63459;51.456;-0.916;2023-05-07T07:31:31;6;5;
73861;PMS5003;63459;51.456;-0.916;2023-05-07T07:33:56;7;6;
73861;PMS5003;63459;51.456;-0.916;2023-05-07T07:36:21;5;5;
73861;PMS5003;63459;51.456;-0.916;2023-05-07T07:38:47;6;6;
73861;PMS5003;63459;51.456;-0.916;2023-05-07T07:41:12;5;5;
73861;PMS5003;63459;51.456;-0.916;2023-05-07T07:46:03;6;5;
73861;PMS5003;63459;51.456;-0.916;2023-05-07T07:48:33;6;5;
73861;PMS5003;63459;51.456;-0.916;2023-05-07T07:50:55;8;7;
73861;PMS5003;63459;51.456;-0.916;2023-05-07T07:53:20;7;7;
73861;PMS5003;63459;51.456;-0.916;2023-05-07T07:58:15;4;4;
73861;PMS5003;63459;51.456;-0.916;2023-05-07T08:00:35;6;6;
73861;PMS5003;63459;51.456;-0.916;2023-05-07T08:03:00;5;5;
73861;PMS5003;63459;51.456;-0.916;2023-05-07T08:05:26;5;5;
73861;PMS5003;63459;51.456;-0.916;2023-05-07T08:07:53;6;6;
73861;PMS5003;63459;51.456;-0.916;2023-05-07T08:10:16;5;5;
73861;PMS5003;63459;51.456;-0.916;2023-05-07T08:12:42;6;6;
73861;PMS5003;63459;51.456;-0.916;2023-05-07T08:15:07;6;6;
73861;PMS5003;63459;51.456;-0.916;2023-05-07T08:17:32;5;5;
73861;PMS5003;63459;51.456;-0.916;2023-05-07T08:19:57;6;6;
73861;PMS5003;63459;51.456;-0.916;2023-05-07T08:22:22;6;5;
73861;PMS5003;63459;51.456;-0.916;2023-05-07T08:24:48;5;5;
73861;PMS5003;63459;51.456;-0.916;2023-05-07T08:27:14;6;5;
73861;PMS5003;63459;51.456;-0.916;2023-05-07T08:29:38;5;5;
73861;PMS5003;63459;51.456;-0.916;2023-05-07T08:32:04;5;5;
73861;PMS5003;63459;51.456;-0.916;2023-05-07T08:34:29;5;5;
73861;PMS5003;63459;51.456;-0.916;2023-05-07T08:36:54;4;4;
73861;PMS5003;63459;51.456;-0.916;2023-05-07T08:41:45;6;6;
73861;PMS5003;63459;51.456;-0.916;2023-05-07T08:44:11;3;3;
73861;PMS5003;63459;51.456;-0.916;2023-05-07T08:46:35;6;6;
73861;PMS5003;63459;51.456;-0.916;2023-05-07T08:49:01;3;3;
73861;PMS5003;63459;51.456;-0.916;2023-05-07T08:51:25;5;5;
73861;PMS5003;63459;51.456;-0.916;2023-05-07T08:53:51;4;4;
73861;PMS5003;63459;51.456;-0.916;2023-05-07T08:56:16;5;5;
73861;PMS5003;63459;51.456;-0.916;2023-05-07T08:58:41;5;5;
73861;PMS5003;63459;51.456;-0.916;2023-05-07T09:01:08;6;5;
73861;PMS5003;63459;51.456;-0.916;2023-05-07T09:03:33;5;5;
73861;PMS5003;63459;51.456;-0.916;2023-05-07T09:05:58;3;3;
73861;PMS5003;63459;51.456;-0.916;2023-05-07T09:08:24;5;5;
73861;PMS5003;63459;51.456;-0.916;2023-05-07T09:10:49;4;4;
73861;PMS5003;63459;51.456;-0.916;2023-05-07T09:13:14;4;4;
73861;PMS5003;63459;51.456;-0.916;2023-05-07T09:15:39;4;4;
73861;PMS5003;63459;51.456;-0.916;2023-05-07T09:18:04;5;5;
73861;PMS5003;63459;51.456;-0.916;2023-05-07T09:20:30;4;4;
73861;PMS5003;63459;51.456;-0.916;2023-05-07T09:22:55;7;7;
73861;PMS5003;63459;51.456;-0.916;2023-05-07T09:27:46;4;4;
73861;PMS5003;63459;51.456;-0.916;2023-05-07T09:30:12;6;6;
73861;PMS5003;63459;51.456;-0.916;2023-05-07T09:32:37;6;6;
73861;PMS5003;63459;51.456;-0.916;2023-05-07T09:35:01;6;6;
73861;PMS5003;63459;51.456;-0.916;2023-05-07T09:37:27;6;6;
73861;PMS5003;63459;51.456;-0.916;2023-05-07T09:39:53;5;5;
73861;PMS5003;63459;51.456;-0.916;2023-05-07T09:42:22;6;5;
73861;PMS5003;63459;51.456;-0.916;2023-05-07T09:44:44;10;8;
73861;PMS5003;63459;51.456;-0.916;2023-05-07T09:47:09;5;4;
73861;PMS5003;63459;51.456;-0.916;2023-05-07T09:49:34;5;5;
73861;PMS5003;63459;51.456;-0.916;2023-05-07T09:52:01;5;5;
73861;PMS5003;63459;51.456;-0.916;2023-05-07T09:54:29;5;5;
73861;PMS5003;63459;51.456;-0.916;2023-05-07T09:56:49;5;5;
73861;PMS5003;63459;51.456;-0.916;2023-05-07T09:59:16;6;5;
73861;PMS5003;63459;51.456;-0.916;2023-05-07T10:01:45;6;6;
73861;PMS5003;63459;51.456;-0.916;2023-05-07T10:04:06;8;7;
73861;PMS5003;63459;51.456;-0.916;2023-05-07T10:06:31;6;5;
73861;PMS5003;63459;51.456;-0.916;2023-05-07T10:08:57;15;13;
73861;PMS5003;63459;51.456;-0.916;2023-05-07T10:11:21;30;23;
73861;PMS5003;63459;51.456;-0.916;2023-05-07T10:13:47;20;17;
73861;PMS5003;63459;51.456;-0.916;2023-05-07T10:16:19;20;17;
73861;PMS5003;63459;51.456;-0.916;2023-05-07T10:18:38;13;12;
73861;PMS5003;63459;51.456;-0.916;2023-05-07T10:21:04;13;11;
73861;PMS5003;63459;51.456;-0.916;2023-05-07T10:23:29;6;6;
73861;PMS5003;63459;51.456;-0.916;2023-05-07T10:25:53;7;7;
73861;PMS5003;63459;51.456;-0.916;2023-05-07T10:28:20;7;7;
73861;PMS5003;63459;51.456;-0.916;2023-05-07T10:33:10;8;7;
73861;PMS5003;63459;51.456;-0.916;2023-05-07T10:35:37;8;8;
73861;PMS5003;63459;51.456;-0.916;2023-05-07T10:38:00;7;7;
73861;PMS5003;63459;51.456;-0.916;2023-05-07T10:40:25;5;5;
73861;PMS5003;63459;51.456;-0.916;2023-05-07T10:45:17;6;6;
73861;PMS5003;63459;51.456;-0.916;2023-05-07T10:52:38;4;4;
73861;PMS5003;63459;51.456;-0.916;2023-05-07T11:02:14;7;7;
73861;PMS5003;63459;51.456;-0.916;2023-05-07T11:04:39;4;4;
73861;PMS5003;63459;51.456;-0.916;2023-05-07T11:11:56;5;5;
73861;PMS5003;63459;51.456;-0.916;2023-05-07T11:16:45;4;4;
73861;PMS5003;63459;51.456;-0.916;2023-05-07T11:19:16;4;4;
73861;PMS5003;63459;51.456;-0.916;2023-05-07T11:21:36;3;3;
73861;PMS5003;63459;51.456;-0.916;2023-05-07T11:24:01;3;2;
73861;PMS5003;63459;51.456;-0.916;2023-05-07T11:26:27;5;5;
73861;PMS5003;63459;51.456;-0.916;2023-05-07T11:28:51;2;2;
73861;PMS5003;63459;51.456;-0.916;2023-05-07T11:31:20;3;3;
73861;PMS5003;63459;51.456;-0.916;2023-05-07T11:33:41;4;3;
73861;PMS5003;63459;51.456;-0.916;2023-05-07T11:36:07;2;2;
73861;PMS5003;63459;51.456;-0.916;2023-05-07T11:38:35;3;3;
73861;PMS5003;63459;51.456;-0.916;2023-05-07T11:40:58;4;4;
73861;PMS5003;63459;51.456;-0.916;2023-05-07T11:43:23;2;2;
73861;PMS5003;63459;51.456;-0.916;2023-05-07T11:45:48;2;2;
73861;PMS5003;63459;51.456;-0.916;2023-05-07T11:48:13;3;3;
73861;PMS5003;63459;51.456;-0.916;2023-05-07T11:53:08;4;3;
73861;PMS5003;63459;51.456;-0.916;2023-05-07T11:55:29;3;3;
73861;PMS5003;63459;51.456;-0.916;2023-05-07T11:57:54;2;2;
